createdAt,value
2022-10-30T00:00:31.094Z,98541.03
2022-10-30T00:02:35.504Z,98543.53
2022-10-30T00:04:38.547Z,98548.09
2022-10-30T00:06:41.720Z,98539.63
2022-10-30T00:08:44.787Z,98537.81
2022-10-30T00:10:50.147Z,98537.13
2022-10-30T00:12:53.159Z,98540.91
2022-10-30T00:14:56.284Z,98541.16
2022-10-30T00:16:59.325Z,98544.97
2022-10-30T00:19:03.744Z,98545.09
2022-10-30T00:21:08.643Z,98545.34
2022-10-30T00:23:11.725Z,98547.25
2022-10-30T00:25:14.794Z,98538.66
2022-10-30T00:27:17.833Z,98538.09
2022-10-30T00:29:23.486Z,98543.34
2022-10-30T00:31:26.481Z,98541.66
2022-10-30T00:33:29.598Z,98536.53
2022-10-30T00:35:34.883Z,98536.63
2022-10-30T00:37:38.844Z,98539.38
2022-10-30T00:39:44.640Z,98535.94
2022-10-30T00:41:47.688Z,98536.75
2022-10-30T00:43:50.898Z,98536.16
2022-10-30T00:45:54.891Z,98536.41
2022-10-30T00:48:00.973Z,98529.72
2022-10-30T00:50:07.736Z,98532.44
2022-10-30T00:52:12.468Z,98528.25
2022-10-30T00:54:17.575Z,98527.31
2022-10-30T00:56:22.272Z,98529.25
2022-10-30T00:58:30.461Z,98528.50
2022-10-30T01:00:33.518Z,98530.41
2022-10-30T01:02:36.592Z,98528.72
2022-10-30T01:04:42.564Z,98527.09
2022-10-30T01:06:48.684Z,98528.84
2022-10-30T01:08:58.818Z,98533.97
2022-10-30T01:11:04.360Z,98529.59
2022-10-30T01:13:07.889Z,98531.47
2022-10-30T01:15:11.395Z,98535.91
2022-10-30T01:17:28.755Z,98526.09
2022-10-30T01:19:36.960Z,98531.34
2022-10-30T01:21:50.399Z,98532.22
2022-10-30T01:24:09.349Z,98537.59
2022-10-30T01:26:23.980Z,98533.16
2022-10-30T01:28:36.145Z,98524.69
2022-10-30T01:30:51.513Z,98528.72
2022-10-30T01:33:07.776Z,98520.03
2022-10-30T01:35:16.561Z,98522.66
2022-10-30T01:37:23.981Z,98522.66
2022-10-30T01:39:30.156Z,98521.84
2022-10-30T01:41:33.220Z,98515.72
2022-10-30T01:43:37.877Z,98517.41
2022-10-30T01:46:10.993Z,98510.47
2022-10-30T01:48:39.321Z,98508.94
2022-10-30T01:50:48.741Z,98496.28
2022-10-30T01:52:58.956Z,98493.91
2022-10-30T01:55:09.404Z,98498.22
2022-10-30T01:57:18.608Z,98493.91
2022-10-30T01:59:27.437Z,98494.72
2022-10-30T02:01:34.981Z,98488.53
2022-10-30T02:03:39.462Z,98497.34
2022-10-30T02:06:02.723Z,98490.47
2022-10-30T02:08:07.339Z,98478.28
2022-10-30T02:10:15.977Z,98474.81
2022-10-30T02:12:19.757Z,98473.97
2022-10-30T02:14:26.929Z,98476.72
2022-10-30T02:16:30.310Z,98473.25
2022-10-30T02:18:33.756Z,98479.22
2022-10-30T02:20:39.824Z,98483.66
2022-10-30T02:22:43.821Z,98479.34
2022-10-30T02:24:47.351Z,98481.38
2022-10-30T02:26:50.959Z,98483.16
2022-10-30T02:28:54.504Z,98488.41
2022-10-30T02:30:58.193Z,98487.69
2022-10-30T02:33:02.139Z,98486.03
2022-10-30T02:35:06.938Z,98490.53
2022-10-30T02:37:12.216Z,98473.38
2022-10-30T02:39:16.490Z,98471.94
2022-10-30T02:41:20.020Z,98476.25
2022-10-30T02:43:23.533Z,98471.94
2022-10-30T02:45:27.155Z,98481.38
2022-10-30T02:47:30.656Z,98478.63
2022-10-30T02:49:34.179Z,98478.63
2022-10-30T02:51:38.150Z,98482.06
2022-10-30T02:53:43.445Z,98477.78
2022-10-30T02:55:48.136Z,98473.63
2022-10-30T02:57:51.471Z,98471.09
2022-10-30T02:59:54.965Z,98463.47
2022-10-30T03:01:58.430Z,98463.34
2022-10-30T03:04:02.100Z,98461.66
2022-10-30T03:06:07.329Z,98463.34
2022-10-30T03:08:11.590Z,98470.00
2022-10-30T03:10:16.636Z,98477.88
2022-10-30T03:12:20.025Z,98477.19
2022-10-30T03:14:23.614Z,98478.84
2022-10-30T03:16:30.351Z,98478.84
2022-10-30T03:18:34.398Z,98478.84
2022-10-30T03:20:44.019Z,98477.19
2022-10-30T03:22:48.211Z,98474.56
2022-10-30T03:24:51.731Z,98471.34
2022-10-30T03:26:56.733Z,98480.97
2022-10-30T03:29:00.945Z,98476.69
2022-10-30T03:31:06.811Z,98476.81
2022-10-30T03:33:10.511Z,98479.56
2022-10-30T03:35:14.003Z,98474.19
2022-10-30T03:37:17.791Z,98481.31
2022-10-30T03:39:21.187Z,98490.06
2022-10-30T03:41:24.879Z,98488.38
2022-10-30T03:43:30.239Z,98483.34
2022-10-30T03:45:34.464Z,98480.94
2022-10-30T03:47:41.250Z,98492.41
2022-10-30T03:49:45.815Z,98485.69
2022-10-30T03:51:53.881Z,98486.41
2022-10-30T03:53:59.041Z,98486.53
2022-10-30T03:56:05.348Z,98497.34
2022-10-30T03:58:19.038Z,98498.66
2022-10-30T04:00:24.025Z,98504.63
2022-10-30T04:02:33.224Z,98502.34
2022-10-30T04:04:36.329Z,98507.00
2022-10-30T04:06:39.411Z,98514.22
2022-10-30T04:08:43.623Z,98496.22
2022-10-30T04:10:48.075Z,98499.94
2022-10-30T04:12:51.168Z,98504.31
2022-10-30T04:14:54.522Z,98499.06
2022-10-30T04:16:58.927Z,98492.19
2022-10-30T04:19:02.099Z,98491.53
2022-10-30T04:21:05.522Z,98489.66
2022-10-30T04:23:14.481Z,98485.38
2022-10-30T04:25:17.985Z,98492.63
2022-10-30T04:27:21.529Z,98494.53
2022-10-30T04:29:25.610Z,98494.66
2022-10-30T04:31:29.098Z,98498.91
2022-10-30T04:33:33.503Z,98504.16
2022-10-30T04:35:38.349Z,98498.09
2022-10-30T04:37:53.359Z,98500.00
2022-10-30T04:39:56.372Z,98503.56
2022-10-30T04:42:02.653Z,98491.50
2022-10-30T04:44:09.832Z,98497.50
2022-10-30T04:46:12.798Z,98491.41
2022-10-30T04:48:16.869Z,98501.06
2022-10-30T04:50:21.661Z,98500.34
2022-10-30T04:52:25.120Z,98499.59
2022-10-30T04:54:29.057Z,98494.34
2022-10-30T04:56:32.939Z,98494.34
2022-10-30T04:58:36.052Z,98500.69
2022-10-30T05:00:41.673Z,98500.03
2022-10-30T05:02:49.840Z,98498.41
2022-10-30T05:04:52.828Z,98496.72
2022-10-30T05:06:57.216Z,98501.13
2022-10-30T05:09:00.277Z,98492.28
2022-10-30T05:11:10.824Z,98493.16
2022-10-30T05:13:13.891Z,98488.13
2022-10-30T05:15:18.452Z,98486.22
2022-10-30T05:17:21.567Z,98482.91
2022-10-30T05:19:26.820Z,98481.94
2022-10-30T05:21:32.959Z,98488.97
2022-10-30T05:23:37.307Z,98481.09
2022-10-30T05:25:41.857Z,98482.91
2022-10-30T05:27:47.690Z,98481.22
2022-10-30T05:29:50.798Z,98477.03
2022-10-30T05:31:53.971Z,98482.25
2022-10-30T05:34:29.338Z,98488.47
2022-10-30T05:36:32.596Z,98480.72
2022-10-30T05:38:37.124Z,98480.09
2022-10-30T05:40:43.380Z,98480.19
2022-10-30T05:42:47.104Z,98476.97
2022-10-30T05:45:05.790Z,98482.34
2022-10-30T05:47:12.176Z,98477.31
2022-10-30T05:49:18.712Z,98473.97
2022-10-30T05:51:22.559Z,98478.28
2022-10-30T05:53:29.675Z,98484.47
2022-10-30T05:55:36.509Z,98486.38
2022-10-30T05:57:46.666Z,98485.50
2022-10-30T05:59:49.933Z,98481.34
2022-10-30T06:01:53.079Z,98482.28
2022-10-30T06:03:56.193Z,98482.28
2022-10-30T06:05:59.234Z,98484.06
2022-10-30T06:08:03.251Z,98477.97
2022-10-30T06:10:07.171Z,98485.13
2022-10-30T06:12:30.504Z,98475.81
2022-10-30T06:14:52.004Z,98485.34
2022-10-30T06:16:55.050Z,98481.03
2022-10-30T06:19:15.493Z,98483.66
2022-10-30T06:21:21.742Z,98491.50
2022-10-30T06:23:32.611Z,98489.88
2022-10-30T06:25:42.374Z,98492.38
2022-10-30T06:27:51.482Z,98494.13
2022-10-30T06:29:54.926Z,98488.19
2022-10-30T06:31:59.802Z,98495.31
2022-10-30T06:34:05.596Z,98497.81
2022-10-30T06:36:10.763Z,98492.59
2022-10-30T06:38:14.948Z,98495.09
2022-10-30T06:40:18.676Z,98496.75
2022-10-30T06:42:51.895Z,98500.22
2022-10-30T06:45:18.487Z,98507.75
2022-10-30T06:47:21.690Z,98506.34
2022-10-30T06:49:24.655Z,98503.06
2022-10-30T06:51:28.659Z,98499.88
2022-10-30T06:53:31.954Z,98499.22
2022-10-30T06:55:58.981Z,98501.88
2022-10-30T06:58:22.161Z,98518.66
2022-10-30T07:00:31.660Z,98507.38
2022-10-30T07:03:10.020Z,98515.88
2022-10-30T07:05:13.174Z,98519.16
2022-10-30T07:07:16.807Z,98511.69
2022-10-30T07:09:19.820Z,98522.53
2022-10-30T07:11:23.949Z,98523.28
2022-10-30T07:13:54.895Z,98524.22
2022-10-30T07:16:06.584Z,98529.44
2022-10-30T07:18:16.788Z,98527.44
2022-10-30T07:20:20.157Z,98531.72
2022-10-30T07:22:23.409Z,98536.97
2022-10-30T07:24:29.430Z,98532.78
2022-10-30T07:26:50.951Z,98530.84
2022-10-30T07:29:18.290Z,98528.91
2022-10-30T07:31:35.197Z,98526.22
2022-10-30T07:33:45.874Z,98537.41
2022-10-30T07:36:08.849Z,98531.03
2022-10-30T07:38:38.306Z,98528.19
2022-10-30T07:40:56.041Z,98529.94
2022-10-30T07:43:22.123Z,98532.91
2022-10-30T07:45:40.345Z,98535.59
2022-10-30T07:48:07.502Z,98537.16
2022-10-30T07:50:17.795Z,98526.69
2022-10-30T07:52:20.861Z,98531.84
2022-10-30T07:54:25.432Z,98526.94
2022-10-30T07:56:29.123Z,98538.31
2022-10-30T07:58:32.123Z,98534.06
2022-10-30T08:01:12.181Z,98544.66
2022-10-30T08:03:15.711Z,98539.28
2022-10-30T08:05:29.993Z,98535.41
2022-10-30T08:07:47.434Z,98534.47
2022-10-30T08:09:51.275Z,98537.09
2022-10-30T08:11:54.479Z,98536.31
2022-10-30T08:13:57.606Z,98540.50
2022-10-30T08:16:00.560Z,98547.47
2022-10-30T08:18:05.280Z,98541.38
2022-10-30T08:20:11.028Z,98544.34
2022-10-30T08:22:14.280Z,98549.50
2022-10-30T08:24:17.912Z,98549.06
2022-10-30T08:26:23.227Z,98541.56
2022-10-30T08:28:31.614Z,98543.66
2022-10-30T08:30:38.028Z,98544.50
2022-10-30T08:32:42.296Z,98540.91
2022-10-30T08:35:06.417Z,98535.91
2022-10-30T08:37:09.672Z,98537.03
2022-10-30T08:39:12.747Z,98539.53
2022-10-30T08:41:23.486Z,98541.59
2022-10-30T08:43:28.538Z,98539.22
2022-10-30T08:45:31.674Z,98539.88
2022-10-30T08:47:58.194Z,98542.53
2022-10-30T08:50:05.501Z,98535.69
2022-10-30T08:52:09.638Z,98545.53
2022-10-30T08:54:12.853Z,98537.56
2022-10-30T08:56:16.056Z,98538.28
2022-10-30T08:58:27.414Z,98543.00
2022-10-30T09:00:31.164Z,98542.00
2022-10-30T09:03:06.411Z,98549.06
2022-10-30T09:05:16.854Z,98545.44
2022-10-30T09:07:37.910Z,98540.53
2022-10-30T09:10:10.445Z,98548.03
2022-10-30T09:12:14.220Z,98545.06
2022-10-30T09:14:20.557Z,98543.03
2022-10-30T09:16:23.684Z,98538.38
2022-10-30T09:18:26.890Z,98539.69
2022-10-30T09:20:32.353Z,98544.59
2022-10-30T09:22:35.668Z,98537.72
2022-10-30T09:24:40.027Z,98542.84
2022-10-30T09:27:01.310Z,98547.06
2022-10-30T09:29:04.523Z,98540.84
2022-10-30T09:31:26.428Z,98541.59
2022-10-30T09:33:30.349Z,98539.53
2022-10-30T09:35:58.062Z,98542.09
2022-10-30T09:38:01.929Z,98548.44
2022-10-30T09:40:06.959Z,98552.66
2022-10-30T09:42:25.588Z,98550.41
2022-10-30T09:44:45.810Z,98558.41
2022-10-30T09:47:04.123Z,98553.28
2022-10-30T09:49:18.393Z,98555.16
2022-10-30T09:51:42.272Z,98554.78
2022-10-30T09:53:56.605Z,98562.06
2022-10-30T09:56:09.931Z,98567.22
2022-10-30T09:58:23.648Z,98560.13
2022-10-30T10:00:32.198Z,98564.81
2022-10-30T10:02:38.811Z,98563.50
2022-10-30T10:04:44.683Z,98557.50
2022-10-30T10:06:54.553Z,98561.19
2022-10-30T10:09:18.271Z,98558.03
2022-10-30T10:11:54.995Z,98558.88
2022-10-30T10:14:00.237Z,98564.56
2022-10-30T10:16:09.128Z,98555.00
2022-10-30T10:18:26.505Z,98555.69
2022-10-30T10:20:34.347Z,98556.38
2022-10-30T10:22:41.482Z,98555.25
2022-10-30T10:24:47.601Z,98550.09
2022-10-30T10:26:51.961Z,98558.94
2022-10-30T10:29:05.549Z,98553.63
2022-10-30T10:31:17.190Z,98547.47
2022-10-30T10:33:44.419Z,98548.34
2022-10-30T10:35:54.770Z,98552.84
2022-10-30T10:38:10.133Z,98543.19
2022-10-30T10:40:26.401Z,98549.88
2022-10-30T10:42:37.394Z,98552.03
2022-10-30T10:44:50.232Z,98551.69
2022-10-30T10:47:07.518Z,98547.19
2022-10-30T10:49:21.873Z,98544.53
2022-10-30T10:51:27.384Z,98538.22
2022-10-30T10:53:36.553Z,98540.88
2022-10-30T10:55:42.465Z,98542.56
2022-10-30T10:57:46.450Z,98534.41
2022-10-30T10:59:58.122Z,98538.72
2022-10-30T11:02:21.614Z,98532.41
2022-10-30T11:04:30.288Z,98526.75
2022-10-30T11:06:38.339Z,98530.06
2022-10-30T11:08:42.754Z,98527.25
2022-10-30T11:10:46.863Z,98530.59
2022-10-30T11:12:50.326Z,98512.13
2022-10-30T11:14:53.749Z,98513.78
2022-10-30T11:17:04.588Z,98507.47
2022-10-30T11:19:10.069Z,98505.78
2022-10-30T11:21:18.763Z,98502.16
2022-10-30T11:23:39.878Z,98508.13
2022-10-30T11:25:44.362Z,98500.13
2022-10-30T11:27:49.321Z,98504.94
2022-10-30T11:29:53.937Z,98501.78
2022-10-30T11:32:04.606Z,98505.78
2022-10-30T11:34:26.419Z,98498.28
2022-10-30T11:36:29.512Z,98496.94
2022-10-30T11:38:32.536Z,98503.91
2022-10-30T11:40:35.624Z,98498.25
2022-10-30T11:42:41.037Z,98498.94
2022-10-30T11:44:45.408Z,98496.91
2022-10-30T11:46:48.419Z,98494.09
2022-10-30T11:48:55.150Z,98493.25
2022-10-30T11:51:00.603Z,98486.91
2022-10-30T11:53:11.625Z,98492.63
2022-10-30T11:55:18.134Z,98489.94
2022-10-30T11:57:24.316Z,98490.59
2022-10-30T11:59:28.693Z,98490.44
2022-10-30T12:01:33.464Z,98494.72
2022-10-30T12:03:38.184Z,98491.06
2022-10-30T12:05:44.921Z,98488.25
2022-10-30T12:07:50.315Z,98482.56
2022-10-30T12:09:53.310Z,98480.72
2022-10-30T12:11:56.267Z,98473.59
2022-10-30T12:13:59.759Z,98470.75
2022-10-30T12:16:15.236Z,98463.59
2022-10-30T12:18:21.286Z,98462.78
2022-10-30T12:20:24.278Z,98460.94
2022-10-30T12:22:31.701Z,98466.59
2022-10-30T12:24:37.149Z,98471.28
2022-10-30T12:26:40.922Z,98467.28
2022-10-30T12:28:51.785Z,98465.81
2022-10-30T12:30:57.734Z,98466.81
2022-10-30T12:33:05.596Z,98464.97
2022-10-30T12:35:18.483Z,98461.31
2022-10-30T12:37:26.065Z,98464.81
2022-10-30T12:39:33.852Z,98455.81
2022-10-30T12:41:43.523Z,98452.13
2022-10-30T12:43:49.902Z,98440.50
2022-10-30T12:45:58.528Z,98453.63
2022-10-30T12:48:05.647Z,98446.31
2022-10-30T12:50:18.391Z,98447.97
2022-10-30T12:52:25.666Z,98454.97
2022-10-30T12:54:33.531Z,98453.78
2022-10-30T12:56:39.644Z,98449.94
2022-10-30T12:58:45.610Z,98452.25
2022-10-30T13:00:54.771Z,98450.25
2022-10-30T13:03:01.188Z,98448.44
2022-10-30T13:05:23.711Z,98442.09
2022-10-30T13:07:31.435Z,98441.91
2022-10-30T13:09:39.452Z,98443.56
2022-10-30T13:11:47.154Z,98439.25
2022-10-30T13:13:53.928Z,98444.56
2022-10-30T13:15:58.759Z,98437.59
2022-10-30T13:18:13.309Z,98431.44
2022-10-30T13:20:19.454Z,98438.59
2022-10-30T13:22:26.333Z,98432.28
2022-10-30T13:24:40.083Z,98438.25
2022-10-30T13:26:47.238Z,98423.28
2022-10-30T13:28:55.511Z,98428.41
2022-10-30T13:31:02.744Z,98427.59
2022-10-30T13:33:12.359Z,98428.59
2022-10-30T13:35:27.547Z,98430.59
2022-10-30T13:37:36.757Z,98429.78
2022-10-30T13:39:43.919Z,98431.59
2022-10-30T13:42:01.493Z,98430.78
2022-10-30T13:44:12.806Z,98435.28
2022-10-30T13:46:35.101Z,98436.47
2022-10-30T13:48:53.740Z,98433.78
2022-10-30T13:51:13.821Z,98433.97
2022-10-30T13:53:19.689Z,98429.47
2022-10-30T13:55:25.697Z,98433.16
2022-10-30T13:57:33.703Z,98428.00
2022-10-30T13:59:53.388Z,98436.97
2022-10-30T14:02:02.097Z,98432.66
2022-10-30T14:04:11.116Z,98433.66
2022-10-30T14:06:22.465Z,98439.81
2022-10-30T14:08:35.333Z,98438.31
2022-10-30T14:10:45.298Z,98432.16
2022-10-30T14:12:53.396Z,98433.00
2022-10-30T14:14:56.436Z,98428.69
2022-10-30T14:17:12.159Z,98431.34
2022-10-30T14:19:15.947Z,98426.38
2022-10-30T14:21:51.535Z,98435.53
2022-10-30T14:24:05.421Z,98430.38
2022-10-30T14:26:16.214Z,98424.56
2022-10-30T14:28:20.526Z,98428.19
2022-10-30T14:30:23.770Z,98432.06
2022-10-30T14:32:38.214Z,98431.38
2022-10-30T14:34:42.499Z,98425.41
2022-10-30T14:36:51.914Z,98427.41
2022-10-30T14:39:02.306Z,98427.41
2022-10-30T14:41:36.559Z,98436.41
2022-10-30T14:43:46.508Z,98430.59
2022-10-30T14:45:51.802Z,98431.75
2022-10-30T14:47:58.684Z,98434.75
2022-10-30T14:50:03.677Z,98432.63
2022-10-30T14:52:16.966Z,98436.59
2022-10-30T14:54:26.280Z,98434.28
2022-10-30T14:56:36.410Z,98434.84
2022-10-30T14:58:40.306Z,98436.00
2022-10-30T15:00:45.871Z,98431.81
2022-10-30T15:02:52.958Z,98432.16
2022-10-30T15:05:12.745Z,98431.69
2022-10-30T15:07:22.312Z,98428.38
2022-10-30T15:09:41.666Z,98429.88
2022-10-30T15:12:21.261Z,98433.84
2022-10-30T15:14:40.556Z,98431.06
2022-10-30T15:16:52.495Z,98427.41
2022-10-30T15:18:59.591Z,98425.91
2022-10-30T15:21:05.792Z,98422.91
2022-10-30T15:23:11.507Z,98422.56
2022-10-30T15:25:19.968Z,98426.75
2022-10-30T15:27:26.679Z,98429.91
2022-10-30T15:29:33.327Z,98429.56
2022-10-30T15:31:36.329Z,98432.53
2022-10-30T15:33:39.867Z,98431.22
2022-10-30T15:35:48.600Z,98425.94
2022-10-30T15:38:02.040Z,98425.75
2022-10-30T15:40:19.974Z,98433.38
2022-10-30T15:42:23.368Z,98432.38
2022-10-30T15:44:28.684Z,98433.03
2022-10-30T15:46:32.664Z,98434.53
2022-10-30T15:48:39.421Z,98431.66
2022-10-30T15:50:46.040Z,98435.13
2022-10-30T15:52:49.456Z,98430.66
2022-10-30T15:54:55.946Z,98433.09
2022-10-30T15:57:42.679Z,98431.09
2022-10-30T15:59:28.475Z,98426.59
2022-10-30T16:01:39.051Z,98430.22
2022-10-30T16:03:45.854Z,98431.84
2022-10-30T16:05:51.549Z,98430.00
2022-10-30T16:07:56.422Z,98429.66
2022-10-30T16:10:01.332Z,98433.59
2022-10-30T16:12:11.823Z,98427.41
2022-10-30T16:14:22.670Z,98431.03
2022-10-30T16:16:27.769Z,98426.50
2022-10-30T16:18:33.124Z,98431.28
2022-10-30T16:20:36.836Z,98427.59
2022-10-30T16:22:41.067Z,98430.88
2022-10-30T16:24:44.239Z,98429.69
2022-10-30T16:26:47.245Z,98436.28
2022-10-30T16:28:52.029Z,98430.75
2022-10-30T16:30:56.040Z,98421.78
2022-10-30T16:33:00.145Z,98424.22
2022-10-30T16:35:04.814Z,98422.19
2022-10-30T16:37:18.126Z,98428.94
2022-10-30T16:39:21.911Z,98433.03
2022-10-30T16:41:27.184Z,98432.63
2022-10-30T16:43:31.786Z,98441.19
2022-10-30T16:45:49.673Z,98432.88
2022-10-30T16:47:54.965Z,98436.13
2022-10-30T16:49:59.157Z,98435.06
2022-10-30T16:52:05.891Z,98437.34
2022-10-30T16:54:22.914Z,98439.75
2022-10-30T16:56:30.545Z,98446.50
2022-10-30T16:58:33.598Z,98448.91
2022-10-30T17:00:37.105Z,98446.03
2022-10-30T17:02:45.459Z,98449.25
2022-10-30T17:04:53.827Z,98448.75
2022-10-30T17:07:13.741Z,98456.16
2022-10-30T17:09:22.735Z,98461.88
2022-10-30T17:11:36.327Z,98458.69
2022-10-30T17:13:42.860Z,98457.34
2022-10-30T17:15:46.942Z,98463.06
2022-10-30T17:18:10.999Z,98472.66
2022-10-30T17:20:29.864Z,98477.84
2022-10-30T17:22:34.484Z,98473.44
2022-10-30T17:24:38.785Z,98475.16
2022-10-30T17:26:42.540Z,98486.47
2022-10-30T17:28:46.686Z,98482.88
2022-10-30T17:30:49.897Z,98479.97
2022-10-30T17:32:55.484Z,98480.53
2022-10-30T17:35:02.256Z,98476.50
2022-10-30T17:37:05.617Z,98484.03
2022-10-30T17:39:09.378Z,98496.72
2022-10-30T17:41:16.768Z,98488.22
2022-10-30T17:43:24.913Z,98492.97
2022-10-30T17:45:28.697Z,98488.09
2022-10-30T17:47:31.791Z,98490.06
2022-10-30T17:49:38.811Z,98493.78
2022-10-30T17:51:41.978Z,98502.78
2022-10-30T17:53:45.602Z,98505.56
2022-10-30T17:55:51.799Z,98505.03
2022-10-30T17:58:00.247Z,98511.41
2022-10-30T18:00:03.773Z,98506.56
2022-10-30T18:02:18.427Z,98506.16
2022-10-30T18:04:21.773Z,98508.09
2022-10-30T18:06:28.951Z,98508.38
2022-10-30T18:08:33.941Z,98501.72
2022-10-30T18:10:37.371Z,98502.97
2022-10-30T18:12:41.706Z,98511.16
2022-10-30T18:14:45.791Z,98515.03
2022-10-30T18:16:54.503Z,98517.56
2022-10-30T18:18:58.860Z,98519.75
2022-10-30T18:21:02.316Z,98514.19
2022-10-30T18:23:31.433Z,98514.47
2022-10-30T18:25:35.869Z,98520.00
2022-10-30T18:27:38.876Z,98509.72
2022-10-30T18:29:42.211Z,98518.63
2022-10-30T18:31:45.471Z,98516.28
2022-10-30T18:33:48.992Z,98526.09
2022-10-30T18:35:52.321Z,98518.59
2022-10-30T18:37:55.553Z,98516.22
2022-10-30T18:40:00.179Z,98525.41
2022-10-30T18:42:03.867Z,98523.03
2022-10-30T18:44:07.136Z,98532.28
2022-10-30T18:46:10.589Z,98519.50
2022-10-30T18:48:13.785Z,98524.47
2022-10-30T18:50:17.393Z,98526.81
2022-10-30T18:52:20.371Z,98532.63
2022-10-30T18:54:23.850Z,98525.38
2022-10-30T18:56:30.503Z,98529.38
2022-10-30T18:58:33.837Z,98529.63
2022-10-30T19:00:58.200Z,98529.91
2022-10-30T19:03:02.986Z,98517.38
2022-10-30T19:05:21.396Z,98528.19
2022-10-30T19:07:24.508Z,98515.28
2022-10-30T19:09:28.751Z,98521.66
2022-10-30T19:11:33.705Z,98521.78
2022-10-30T19:13:37.283Z,98524.56
2022-10-30T19:15:42.377Z,98524.81
2022-10-30T19:17:46.407Z,98521.31
2022-10-30T19:19:49.625Z,98531.03
2022-10-30T19:21:52.972Z,98524.22
2022-10-30T19:23:56.390Z,98525.19
2022-10-30T19:25:59.799Z,98532.25
2022-10-30T19:28:05.261Z,98529.88
2022-10-30T19:30:09.226Z,98537.91
2022-10-30T19:32:12.317Z,98533.75
2022-10-30T19:34:15.399Z,98534.00
2022-10-30T19:36:30.962Z,98538.56
2022-10-30T19:38:34.511Z,98537.84
2022-10-30T19:40:38.689Z,98537.28
2022-10-30T19:42:41.790Z,98537.28
2022-10-30T19:44:46.593Z,98531.19
2022-10-30T19:46:49.701Z,98527.97
2022-10-30T19:48:58.298Z,98515.19
2022-10-30T19:51:04.049Z,98514.72
2022-10-30T19:53:08.853Z,98516.91
2022-10-30T19:55:12.075Z,98525.44
2022-10-30T19:57:15.656Z,98519.59
2022-10-30T19:59:19.102Z,98517.94
2022-10-30T20:01:24.159Z,98525.81
2022-10-30T20:03:27.545Z,98532.16
2022-10-30T20:05:36.664Z,98534.09
2022-10-30T20:07:40.017Z,98532.81
2022-10-30T20:09:42.957Z,98532.47
2022-10-30T20:11:47.216Z,98539.69
2022-10-30T20:13:52.177Z,98544.31
2022-10-30T20:16:00.455Z,98549.84
2022-10-30T20:18:13.121Z,98538.75
2022-10-30T20:20:18.935Z,98546.06
2022-10-30T20:22:27.162Z,98545.56
2022-10-30T20:24:31.813Z,98550.63
2022-10-30T20:26:38.497Z,98546.00
2022-10-30T20:28:43.217Z,98557.84
2022-10-30T20:30:46.542Z,98560.00
2022-10-30T20:32:52.745Z,98558.84
2022-10-30T20:34:57.497Z,98562.78
2022-10-30T20:37:01.218Z,98555.63
2022-10-30T20:39:05.721Z,98567.81
2022-10-30T20:41:20.906Z,98574.00
2022-10-30T20:43:28.476Z,98573.50
2022-10-30T20:45:31.706Z,98585.63
2022-10-30T20:47:34.883Z,98587.28
2022-10-30T20:49:38.123Z,98589.16
2022-10-30T20:51:42.656Z,98587.47
2022-10-30T20:53:45.776Z,98596.47
2022-10-30T20:55:49.342Z,98597.28
2022-10-30T20:57:52.649Z,98599.91
2022-10-30T20:59:56.446Z,98596.69
2022-10-30T21:01:59.714Z,98595.25
2022-10-30T21:04:03.287Z,98587.72
2022-10-30T21:06:09.641Z,98600.88
2022-10-30T21:08:14.946Z,98608.03
2022-10-30T21:10:18.245Z,98603.72
2022-10-30T21:12:21.597Z,98608.03
2022-10-30T21:14:24.822Z,98599.31
2022-10-30T21:16:28.033Z,98609.94
2022-10-30T21:18:31.683Z,98611.72
2022-10-30T21:20:35.168Z,98615.41
2022-10-30T21:22:38.440Z,98604.44
2022-10-30T21:24:43.163Z,98607.19
2022-10-30T21:26:46.378Z,98609.22
2022-10-30T21:28:49.496Z,98600.00
2022-10-30T21:30:52.902Z,98593.47
2022-10-30T21:32:56.114Z,98587.22
2022-10-30T21:34:59.235Z,98589.63
2022-10-30T21:37:02.515Z,98580.19
2022-10-30T21:39:05.623Z,98584.59
2022-10-30T21:41:10.320Z,98579.22
2022-10-30T21:43:16.707Z,98583.75
2022-10-30T21:45:20.169Z,98587.22
2022-10-30T21:47:23.519Z,98581.00
2022-10-30T21:49:27.166Z,98579.34
2022-10-30T21:51:32.653Z,98580.41
2022-10-30T21:53:35.813Z,98582.66
2022-10-30T21:55:40.801Z,98585.75
2022-10-30T21:57:45.375Z,98588.13
2022-10-30T21:59:48.569Z,98577.00
2022-10-30T22:01:54.955Z,98585.22
2022-10-30T22:04:00.259Z,98574.97
2022-10-30T22:06:07.837Z,98575.19
2022-10-30T22:08:11.009Z,98583.41
2022-10-30T22:10:14.526Z,98578.16
2022-10-30T22:12:17.847Z,98577.31
2022-10-30T22:14:22.466Z,98576.50
2022-10-30T22:16:29.546Z,98579.13
2022-10-30T22:18:32.973Z,98586.13
2022-10-30T22:20:36.648Z,98593.88
2022-10-30T22:22:40.699Z,98596.63
2022-10-30T22:24:43.756Z,98591.16
2022-10-30T22:26:47.674Z,98588.66
2022-10-30T22:28:53.655Z,98591.16
2022-10-30T22:31:04.533Z,98589.50
2022-10-30T22:33:11.950Z,98590.31
2022-10-30T22:35:15.337Z,98586.03
2022-10-30T22:37:18.604Z,98583.50
2022-10-30T22:39:24.707Z,98582.91
2022-10-30T22:41:31.295Z,98591.81
2022-10-30T22:43:37.784Z,98590.16
2022-10-30T22:45:40.813Z,98589.44
2022-10-30T22:47:45.919Z,98584.41
2022-10-30T22:49:49.254Z,98594.16
2022-10-30T22:51:55.806Z,98595.13
2022-10-30T22:54:01.598Z,98597.88
2022-10-30T22:56:13.592Z,98592.84
2022-10-30T23:00:28.563Z,98598.44
2022-10-30T23:02:32.383Z,98600.19
2022-10-30T23:04:37.453Z,98598.66
2022-10-30T23:06:40.717Z,98597.91
2022-10-30T23:08:44.197Z,98594.47
2022-10-30T23:10:52.999Z,98605.88
2022-10-30T23:12:57.655Z,98595.50
2022-10-30T23:15:01.063Z,98604.34
2022-10-30T23:17:04.542Z,98593.84
2022-10-30T23:19:07.766Z,98590.50
2022-10-30T23:21:14.732Z,98595.94
2022-10-30T23:23:17.975Z,98592.63
2022-10-30T23:25:21.353Z,98592.63
2022-10-30T23:27:24.651Z,98594.53
2022-10-30T23:29:27.819Z,98599.03
2022-10-30T23:31:33.605Z,98600.81
2022-10-30T23:33:36.839Z,98602.72
2022-10-30T23:35:40.714Z,98604.38
2022-10-30T23:37:45.466Z,98600.22
2022-10-30T23:39:48.673Z,98603.75
2022-10-30T23:41:51.758Z,98597.91
2022-10-30T23:43:56.598Z,98604.09
2022-10-30T23:45:59.743Z,98603.50
2022-10-30T23:48:02.872Z,98600.16
2022-10-30T23:50:06.979Z,98596.78
2022-10-30T23:52:10.240Z,98592.63
2022-10-30T23:54:14.775Z,98596.19
2022-10-30T23:56:18.322Z,98596.41
2022-10-30T23:58:21.828Z,98593.88
